createdAt,value
2023-05-25T00:00:38.282Z,9.75
2023-05-25T00:03:10.126Z,9.76
2023-05-25T00:05:37.606Z,9.77
2023-05-25T00:08:04.844Z,9.79
2023-05-25T00:10:32.035Z,9.81
2023-05-25T00:12:59.365Z,9.79
2023-05-25T00:15:26.560Z,9.79
2023-05-25T00:17:54.748Z,9.77
2023-05-25T00:20:22.148Z,9.75
2023-05-25T00:22:49.389Z,9.72
2023-05-25T00:25:16.770Z,9.70
2023-05-25T00:27:43.972Z,9.65
2023-05-25T00:30:11.582Z,9.62
2023-05-25T00:32:39.063Z,9.59
2023-05-25T00:35:06.921Z,9.56
2023-05-25T00:37:34.190Z,9.54
2023-05-25T00:40:01.516Z,9.51
2023-05-25T00:42:30.581Z,9.48
2023-05-25T00:44:57.908Z,9.46
2023-05-25T00:47:25.870Z,9.43
2023-05-25T00:49:53.229Z,9.40
2023-05-25T00:52:20.607Z,9.38
2023-05-25T00:55:06.624Z,9.33
2023-05-25T00:57:38.021Z,9.30
2023-05-25T01:00:11.486Z,9.27
2023-05-25T01:02:43.792Z,9.24
2023-05-25T01:05:12.482Z,9.21
2023-05-25T01:07:43.832Z,9.21
2023-05-25T01:10:14.732Z,9.19
2023-05-25T01:12:44.444Z,9.16
2023-05-25T01:15:12.214Z,9.16
2023-05-25T01:17:39.693Z,9.14
2023-05-25T01:20:11.278Z,9.11
2023-05-25T01:26:07.948Z,9.07
2023-05-25T01:28:41.068Z,9.06
2023-05-25T01:31:09.397Z,9.05
2023-05-25T01:33:38.310Z,9.05
2023-05-25T01:36:06.289Z,9.03
2023-05-25T01:38:34.646Z,9.02
2023-05-25T01:41:01.955Z,9.00
2023-05-25T01:43:29.255Z,8.98
2023-05-25T01:46:23.410Z,8.97
2023-05-25T01:48:59.851Z,8.95
2023-05-25T01:51:43.977Z,8.94
2023-05-25T01:54:19.941Z,8.90
2023-05-25T01:56:49.955Z,8.89
2023-05-25T01:59:24.561Z,8.87
2023-05-25T02:01:53.826Z,8.86
2023-05-25T02:04:22.391Z,8.84
2023-05-25T02:06:52.180Z,8.84
2023-05-25T02:09:21.287Z,8.82
2023-05-25T02:11:49.305Z,8.81
2023-05-25T02:14:17.035Z,8.78
2023-05-25T02:16:46.108Z,8.77
2023-05-25T02:19:15.077Z,8.75
2023-05-25T02:21:42.955Z,8.73
2023-05-25T02:24:11.064Z,8.71
2023-05-25T02:26:39.426Z,8.69
2023-05-25T02:29:06.798Z,8.68
2023-05-25T02:31:34.109Z,8.66
2023-05-25T02:34:02.033Z,8.65
2023-05-25T02:36:29.478Z,8.65
2023-05-25T02:38:56.819Z,8.64
2023-05-25T02:41:24.379Z,8.64
2023-05-25T02:43:51.924Z,8.63
2023-05-25T02:46:20.345Z,8.63
2023-05-25T02:48:48.541Z,8.61
2023-05-25T02:51:15.996Z,8.58
2023-05-25T02:53:43.364Z,8.56
2023-05-25T02:56:10.985Z,8.52
2023-05-25T02:58:38.694Z,8.51
2023-05-25T03:01:11.111Z,8.48
2023-05-25T03:03:43.966Z,8.47
2023-05-25T03:06:12.976Z,8.46
2023-05-25T03:08:41.537Z,8.45
2023-05-25T03:11:08.888Z,8.45
2023-05-25T03:13:36.625Z,8.43
2023-05-25T03:16:04.325Z,8.44
2023-05-25T03:18:31.800Z,8.45
2023-05-25T03:20:59.069Z,8.45
2023-05-25T03:23:26.366Z,8.47
2023-05-25T03:25:56.876Z,8.48
2023-05-25T03:28:25.169Z,8.51
2023-05-25T03:30:52.946Z,8.54
2023-05-25T03:33:20.375Z,8.56
2023-05-25T03:35:49.343Z,8.59
2023-05-25T03:38:16.584Z,8.63
2023-05-25T03:40:43.865Z,8.66
2023-05-25T03:43:11.209Z,8.72
2023-05-25T03:45:39.114Z,8.78
2023-05-25T03:48:06.949Z,8.86
2023-05-25T03:50:34.811Z,8.95
2023-05-25T03:53:03.520Z,9.05
2023-05-25T03:55:30.898Z,9.14
2023-05-25T03:57:58.323Z,9.23
2023-05-25T04:00:27.175Z,9.33
2023-05-25T04:02:54.571Z,9.41
2023-05-25T04:05:22.196Z,9.49
2023-05-25T04:07:50.356Z,9.59
2023-05-25T04:10:17.720Z,9.68
2023-05-25T04:12:44.898Z,10.00
2023-05-25T04:15:14.290Z,10.67
2023-05-25T04:17:53.161Z,11.24
2023-05-25T04:20:20.565Z,11.50
2023-05-25T04:22:47.941Z,12.26
2023-05-25T04:25:17.043Z,12.72
2023-05-25T04:27:46.722Z,13.13
2023-05-25T04:30:16.263Z,13.59
2023-05-25T04:33:06.879Z,14.39
2023-05-25T04:35:50.823Z,15.11
2023-05-25T04:38:20.306Z,15.71
2023-05-25T04:40:48.150Z,16.33
2023-05-25T04:43:18.270Z,16.89
2023-05-25T04:45:47.069Z,17.44
2023-05-25T04:48:14.870Z,17.96
2023-05-25T04:50:42.820Z,18.40
2023-05-25T04:53:11.016Z,18.85
2023-05-25T04:55:38.638Z,19.20
2023-05-25T04:58:05.928Z,19.53
2023-05-25T05:00:34.428Z,19.24
2023-05-25T05:03:02.885Z,18.61
2023-05-25T05:05:31.130Z,17.92
2023-05-25T05:08:01.327Z,17.30
2023-05-25T05:10:28.568Z,16.75
2023-05-25T05:12:58.379Z,16.23
2023-05-25T05:15:26.266Z,15.70
2023-05-25T05:17:54.157Z,15.20
2023-05-25T05:20:21.662Z,14.78
2023-05-25T05:22:49.118Z,14.41
2023-05-25T05:25:17.291Z,14.03
2023-05-25T05:27:44.680Z,13.75
2023-05-25T05:30:17.555Z,13.54
2023-05-25T05:32:46.822Z,13.36
2023-05-25T05:35:15.285Z,13.21
2023-05-25T05:37:46.150Z,13.11
2023-05-25T05:40:13.720Z,12.99
2023-05-25T05:42:42.554Z,12.91
2023-05-25T05:45:11.142Z,12.88
2023-05-25T05:47:38.489Z,12.87
2023-05-25T05:50:06.635Z,12.87
2023-05-25T05:52:35.926Z,12.86
2023-05-25T05:55:04.156Z,12.89
2023-05-25T05:57:31.491Z,12.91
2023-05-25T05:59:59.451Z,12.94
2023-05-25T06:02:26.871Z,12.91
2023-05-25T06:04:54.156Z,12.90
2023-05-25T06:07:22.996Z,12.91
2023-05-25T06:09:51.598Z,12.96
2023-05-25T06:12:19.127Z,12.97
2023-05-25T06:14:49.850Z,12.97
2023-05-25T06:17:17.411Z,12.95
2023-05-25T06:19:45.461Z,13.01
2023-05-25T06:22:12.748Z,13.12
2023-05-25T06:24:39.988Z,13.20
2023-05-25T06:27:07.267Z,13.27
2023-05-25T06:29:34.881Z,13.37
2023-05-25T06:32:03.234Z,13.33
2023-05-25T06:34:31.104Z,13.29
2023-05-25T06:36:58.552Z,13.23
2023-05-25T06:39:26.804Z,13.35
2023-05-25T06:41:56.755Z,13.39
2023-05-25T06:44:30.495Z,13.43
2023-05-25T06:47:02.021Z,13.37
2023-05-25T06:49:29.893Z,13.34
2023-05-25T06:51:57.200Z,13.43
2023-05-25T06:54:24.435Z,13.53
2023-05-25T06:56:51.794Z,13.54
2023-05-25T06:59:19.140Z,13.59
2023-05-25T07:01:47.259Z,13.61
2023-05-25T07:04:14.689Z,13.77
2023-05-25T07:06:41.968Z,13.96
2023-05-25T07:09:09.605Z,14.06
2023-05-25T07:11:36.907Z,14.12
2023-05-25T07:14:04.317Z,14.26
2023-05-25T07:16:32.113Z,14.34
2023-05-25T07:19:00.441Z,14.40
2023-05-25T07:21:36.591Z,14.41
2023-05-25T07:24:04.375Z,14.43
2023-05-25T07:26:32.214Z,14.31
2023-05-25T07:28:59.742Z,14.12
2023-05-25T07:31:27.145Z,13.95
2023-05-25T07:33:55.661Z,13.79
2023-05-25T07:36:25.129Z,13.62
2023-05-25T07:38:52.862Z,13.51
2023-05-25T07:41:20.239Z,13.41
2023-05-25T07:43:47.610Z,13.30
2023-05-25T07:46:16.151Z,13.23
2023-05-25T07:48:43.368Z,13.26
2023-05-25T07:51:10.782Z,13.27
2023-05-25T07:53:38.133Z,13.29
2023-05-25T07:56:06.570Z,13.25
2023-05-25T07:58:35.436Z,13.27
2023-05-25T08:01:03.363Z,13.34
2023-05-25T08:03:44.355Z,13.48
2023-05-25T08:06:16.842Z,13.57
2023-05-25T08:08:45.130Z,13.57
2023-05-25T08:11:13.104Z,13.58
2023-05-25T08:13:40.509Z,13.55
2023-05-25T08:16:08.679Z,13.67
2023-05-25T08:18:36.093Z,13.76
2023-05-25T08:21:03.617Z,13.81
2023-05-25T08:23:31.144Z,13.77
2023-05-25T08:25:58.344Z,13.78
2023-05-25T08:28:25.972Z,13.76
2023-05-25T08:30:53.930Z,13.76
2023-05-25T08:33:21.666Z,13.88
2023-05-25T08:35:50.444Z,13.87
2023-05-25T08:38:17.687Z,13.92
2023-05-25T08:40:47.742Z,13.99
2023-05-25T08:43:15.112Z,13.99
2023-05-25T08:45:46.912Z,13.90
2023-05-25T08:48:31.448Z,13.77
2023-05-25T08:51:10.360Z,13.71
2023-05-25T08:53:40.770Z,13.73
2023-05-25T08:56:18.466Z,13.90
2023-05-25T08:58:53.861Z,14.16
2023-05-25T09:01:26.293Z,14.30
2023-05-25T09:03:55.064Z,14.43
2023-05-25T09:06:27.002Z,14.46
2023-05-25T09:08:55.104Z,14.47
2023-05-25T09:11:36.045Z,14.43
2023-05-25T09:14:05.517Z,14.36
2023-05-25T09:16:33.515Z,14.37
2023-05-25T09:19:02.141Z,14.38
2023-05-25T09:21:29.448Z,14.38
2023-05-25T09:23:56.660Z,14.54
2023-05-25T09:26:24.015Z,14.67
2023-05-25T09:28:51.692Z,14.87
2023-05-25T09:31:18.983Z,14.92
2023-05-25T09:33:46.559Z,14.80
2023-05-25T09:36:16.674Z,14.76
2023-05-25T09:38:44.389Z,14.74
2023-05-25T09:41:12.042Z,14.70
2023-05-25T09:43:45.014Z,14.65
2023-05-25T09:46:16.502Z,14.74
2023-05-25T09:48:45.766Z,14.92
2023-05-25T09:51:13.232Z,15.07
2023-05-25T09:53:41.259Z,15.19
2023-05-25T09:56:08.664Z,15.12
2023-05-25T09:58:36.120Z,15.06
2023-05-25T10:01:04.847Z,15.07
2023-05-25T10:03:33.215Z,15.08
2023-05-25T10:06:01.354Z,15.09
2023-05-25T10:08:29.612Z,14.94
2023-05-25T10:10:57.161Z,14.94
2023-05-25T10:13:28.623Z,15.10
2023-05-25T10:15:58.032Z,15.25
2023-05-25T10:18:29.093Z,15.38
2023-05-25T10:21:03.158Z,15.38
2023-05-25T10:23:37.969Z,15.32
2023-05-25T10:26:09.319Z,15.16
2023-05-25T10:28:39.434Z,14.99
2023-05-25T10:31:07.377Z,14.87
2023-05-25T10:33:35.036Z,14.79
2023-05-25T10:36:10.571Z,14.72
2023-05-25T10:38:44.630Z,14.63
2023-05-25T10:41:12.012Z,14.57
2023-05-25T10:43:40.774Z,14.55
2023-05-25T10:46:08.514Z,14.50
2023-05-25T10:48:40.224Z,14.69
2023-05-25T10:51:10.177Z,14.86
2023-05-25T10:53:39.368Z,14.93
2023-05-25T10:56:10.721Z,15.03
2023-05-25T10:58:43.484Z,15.08
2023-05-25T11:01:13.802Z,15.13
2023-05-25T11:03:44.390Z,15.10
2023-05-25T11:06:13.805Z,15.04
2023-05-25T11:08:59.240Z,15.21
2023-05-25T11:11:45.566Z,15.30
2023-05-25T11:14:32.597Z,15.27
2023-05-25T11:17:16.194Z,15.35
2023-05-25T11:19:54.543Z,15.31
2023-05-25T11:22:23.957Z,15.35
2023-05-25T11:24:53.253Z,15.43
2023-05-25T11:27:30.726Z,15.44
2023-05-25T11:29:59.656Z,15.48
2023-05-25T11:32:28.370Z,15.49
2023-05-25T11:34:57.605Z,15.37
2023-05-25T11:37:29.035Z,15.30
2023-05-25T11:39:56.606Z,15.24
2023-05-25T11:42:25.009Z,15.13
2023-05-25T11:44:53.584Z,15.20
2023-05-25T11:47:26.514Z,15.29
2023-05-25T11:49:55.581Z,15.26
2023-05-25T11:52:23.319Z,15.29
2023-05-25T11:54:51.014Z,15.44
2023-05-25T11:57:22.621Z,15.58
2023-05-25T11:59:54.866Z,15.78
2023-05-25T12:02:22.929Z,16.07
2023-05-25T12:04:58.545Z,16.25
2023-05-25T12:07:26.851Z,16.42
2023-05-25T12:10:11.649Z,16.42
2023-05-25T12:12:46.052Z,16.37
2023-05-25T12:15:19.017Z,16.39
2023-05-25T12:17:48.301Z,16.29
2023-05-25T12:20:17.649Z,16.14
2023-05-25T12:22:46.777Z,16.01
2023-05-25T12:25:18.473Z,15.88
2023-05-25T12:27:45.877Z,15.71
2023-05-25T12:30:13.405Z,15.68
2023-05-25T12:33:04.297Z,15.59
2023-05-25T12:35:46.096Z,15.48
2023-05-25T12:38:15.425Z,15.50
2023-05-25T12:40:43.215Z,15.67
2023-05-25T12:43:12.049Z,15.81
2023-05-25T12:45:43.402Z,15.84
2023-05-25T12:48:10.939Z,15.69
2023-05-25T12:50:38.500Z,15.70
2023-05-25T12:53:06.030Z,15.65
2023-05-25T12:55:35.737Z,15.53
2023-05-25T12:58:07.955Z,15.47
2023-05-25T13:00:41.036Z,15.45
2023-05-25T13:03:08.568Z,15.43
2023-05-25T13:05:37.869Z,15.40
2023-05-25T13:08:06.723Z,15.48
2023-05-25T13:10:34.803Z,15.46
2023-05-25T13:13:02.122Z,15.34
2023-05-25T13:15:29.585Z,15.24
2023-05-25T13:18:00.369Z,15.29
2023-05-25T13:20:30.636Z,15.42
2023-05-25T13:22:58.619Z,15.54
2023-05-25T13:25:27.926Z,15.63
2023-05-25T13:27:57.721Z,15.67
2023-05-25T13:30:26.344Z,15.60
2023-05-25T13:32:53.957Z,15.46
2023-05-25T13:35:37.998Z,15.40
2023-05-25T13:38:05.647Z,15.52
2023-05-25T13:40:32.920Z,15.56
2023-05-25T13:43:00.212Z,15.49
2023-05-25T13:45:27.581Z,15.49
2023-05-25T13:47:55.027Z,15.47
2023-05-25T13:50:22.495Z,15.38
2023-05-25T13:52:49.730Z,15.24
2023-05-25T13:55:16.982Z,15.17
2023-05-25T13:57:44.347Z,15.11
2023-05-25T14:00:12.375Z,15.07
2023-05-25T14:02:39.723Z,15.02
2023-05-25T14:05:07.301Z,14.99
2023-05-25T14:07:34.571Z,14.93
2023-05-25T14:10:01.877Z,14.87
2023-05-25T14:12:29.121Z,14.79
2023-05-25T14:14:56.350Z,14.75
2023-05-25T14:17:24.379Z,14.76
2023-05-25T14:19:51.690Z,14.76
2023-05-25T14:22:19.283Z,14.73
2023-05-25T14:24:46.696Z,14.68
2023-05-25T14:27:16.078Z,14.51
2023-05-25T14:29:43.455Z,14.40
2023-05-25T14:32:10.858Z,14.42
2023-05-25T14:34:38.312Z,14.44
2023-05-25T14:37:05.659Z,14.49
2023-05-25T14:39:33.004Z,14.55
2023-05-25T14:42:00.255Z,14.60
2023-05-25T14:44:27.649Z,14.70
2023-05-25T14:46:55.197Z,14.69
2023-05-25T14:49:27.094Z,14.59
2023-05-25T14:51:54.640Z,14.38
2023-05-25T14:54:21.890Z,14.38
2023-05-25T14:56:49.233Z,14.31
2023-05-25T14:59:16.795Z,14.29
2023-05-25T15:01:44.919Z,14.26
2023-05-25T15:04:13.253Z,14.18
2023-05-25T15:06:41.054Z,14.18
2023-05-25T15:09:08.308Z,14.29
2023-05-25T15:11:35.655Z,14.43
2023-05-25T15:14:02.906Z,14.47
2023-05-25T15:16:30.214Z,14.32
2023-05-25T15:18:57.496Z,14.14
2023-05-25T15:21:26.715Z,14.07
2023-05-25T15:23:53.987Z,14.00
2023-05-25T15:26:21.621Z,13.99
2023-05-25T15:28:49.101Z,14.04
2023-05-25T15:31:16.518Z,14.17
2023-05-25T15:33:54.127Z,14.14
2023-05-25T15:36:25.706Z,14.09
2023-05-25T15:38:52.938Z,14.12
2023-05-25T15:41:20.966Z,14.18
2023-05-25T15:43:54.452Z,14.19
2023-05-25T15:46:22.081Z,14.09
2023-05-25T15:48:49.460Z,14.04
2023-05-25T15:51:16.999Z,13.95
2023-05-25T15:53:44.459Z,13.88
2023-05-25T15:56:12.402Z,13.87
2023-05-25T15:58:39.688Z,13.88
2023-05-25T16:01:07.072Z,13.87
2023-05-25T16:03:34.397Z,13.84
2023-05-25T16:06:02.391Z,13.78
2023-05-25T16:08:29.824Z,13.71
2023-05-25T16:10:57.065Z,13.67
2023-05-25T16:13:24.306Z,13.73
2023-05-25T16:15:51.575Z,13.77
2023-05-25T16:18:18.846Z,13.80
2023-05-25T16:20:46.222Z,13.88
2023-05-25T16:23:14.883Z,13.86
2023-05-25T16:25:42.452Z,13.77
2023-05-25T16:28:09.765Z,13.64
2023-05-25T16:30:36.986Z,13.62
2023-05-25T16:33:04.441Z,13.57
2023-05-25T16:35:31.729Z,13.54
2023-05-25T16:37:59.162Z,13.47
2023-05-25T16:40:26.404Z,13.39
2023-05-25T16:42:53.662Z,13.35
2023-05-25T16:45:21.103Z,13.28
2023-05-25T16:47:49.536Z,13.25
2023-05-25T16:50:17.214Z,13.19
2023-05-25T16:52:44.597Z,13.18
2023-05-25T16:55:12.107Z,13.14
2023-05-25T16:57:39.365Z,13.11
2023-05-25T17:00:07.326Z,13.12
2023-05-25T17:02:34.677Z,13.15
2023-05-25T17:05:06.327Z,13.18
2023-05-25T17:07:33.995Z,13.16
2023-05-25T17:10:01.914Z,13.12
2023-05-25T17:12:29.145Z,13.14
2023-05-25T17:14:56.389Z,13.15
2023-05-25T17:17:25.011Z,13.09
2023-05-25T17:19:53.950Z,13.04
2023-05-25T17:22:21.605Z,13.09
2023-05-25T17:24:48.877Z,13.10
2023-05-25T17:27:16.133Z,13.10
2023-05-25T17:29:43.465Z,13.12
2023-05-25T17:32:10.959Z,13.15
2023-05-25T17:34:38.416Z,13.16
2023-05-25T17:37:05.935Z,13.12
2023-05-25T17:39:33.234Z,13.03
2023-05-25T17:42:01.457Z,12.97
2023-05-25T17:44:28.838Z,12.92
2023-05-25T17:46:56.080Z,12.91
2023-05-25T17:49:23.343Z,12.95
2023-05-25T17:51:50.804Z,12.99
2023-05-25T17:54:19.965Z,13.01
2023-05-25T17:56:47.397Z,12.94
2023-05-25T17:59:14.697Z,12.90
2023-05-25T18:01:42.264Z,12.83
2023-05-25T18:04:09.751Z,12.81
2023-05-25T18:06:37.233Z,12.76
2023-05-25T18:09:04.536Z,12.67
2023-05-25T18:11:33.541Z,12.62
2023-05-25T18:14:00.893Z,12.53
2023-05-25T18:16:28.391Z,12.48
2023-05-25T18:18:55.711Z,12.48
2023-05-25T18:21:23.207Z,12.48
2023-05-25T18:23:50.597Z,12.36
2023-05-25T18:26:17.915Z,12.28
2023-05-25T18:28:45.190Z,12.22
2023-05-25T18:31:12.531Z,12.14
2023-05-25T18:33:41.200Z,12.06
2023-05-25T18:36:08.661Z,12.04
2023-05-25T18:38:36.140Z,12.01
2023-05-25T18:41:03.560Z,12.02
2023-05-25T18:43:30.811Z,11.96
2023-05-25T18:45:58.071Z,11.90
2023-05-25T18:48:25.950Z,11.86
2023-05-25T18:50:53.982Z,11.84
2023-05-25T18:53:21.349Z,11.79
2023-05-25T18:55:48.629Z,11.74
2023-05-25T18:58:16.119Z,11.67
2023-05-25T19:00:43.540Z,11.59
2023-05-25T19:03:11.050Z,11.54
2023-05-25T19:05:38.585Z,11.48
2023-05-25T19:08:05.862Z,11.45
2023-05-25T19:10:33.291Z,11.40
2023-05-25T19:13:00.648Z,11.33
2023-05-25T19:15:27.945Z,11.27
2023-05-25T19:17:55.283Z,11.24
2023-05-25T19:20:22.649Z,11.22
2023-05-25T19:22:49.895Z,11.19
2023-05-25T19:25:17.187Z,11.15
2023-05-25T19:27:44.508Z,11.11
2023-05-25T19:30:12.097Z,11.09
2023-05-25T19:32:39.392Z,11.07
2023-05-25T19:35:06.858Z,11.02
2023-05-25T19:37:35.207Z,11.02
2023-05-25T19:40:02.595Z,11.02
2023-05-25T19:42:29.841Z,11.00
2023-05-25T19:44:57.096Z,10.96
2023-05-25T19:47:24.353Z,10.89
2023-05-25T19:49:51.981Z,10.84
2023-05-25T19:52:19.231Z,10.80
2023-05-25T19:54:46.494Z,10.75
2023-05-25T19:57:13.807Z,10.72
2023-05-25T19:59:41.422Z,10.71
2023-05-25T20:02:08.917Z,10.67
2023-05-25T20:04:36.325Z,10.65
2023-05-25T20:07:03.567Z,10.63
2023-05-25T20:09:30.979Z,10.60
2023-05-25T20:11:59.120Z,10.59
2023-05-25T20:14:26.602Z,10.57
2023-05-25T20:16:56.087Z,10.53
2023-05-25T20:19:23.616Z,10.52
2023-05-25T20:21:51.506Z,10.50
2023-05-25T20:24:18.867Z,10.47
2023-05-25T20:26:46.117Z,10.43
2023-05-25T20:29:13.427Z,10.42
2023-05-25T20:31:40.840Z,10.41
2023-05-25T20:34:08.248Z,10.41
2023-05-25T20:36:35.710Z,10.39
2023-05-25T20:39:03.443Z,10.38
2023-05-25T20:41:30.823Z,10.35
2023-05-25T20:43:58.217Z,10.32
2023-05-25T20:46:26.204Z,10.27
2023-05-25T20:48:53.786Z,10.25
2023-05-25T20:51:21.963Z,10.23
2023-05-25T20:53:49.275Z,10.21
2023-05-25T20:56:16.697Z,10.20
2023-05-25T20:58:44.055Z,10.18
2023-05-25T21:01:11.490Z,10.18
2023-05-25T21:03:39.915Z,10.18
2023-05-25T21:06:07.444Z,10.17
2023-05-25T21:08:35.129Z,10.14
2023-05-25T21:11:02.480Z,10.11
2023-05-25T21:13:29.776Z,10.10
2023-05-25T21:15:57.026Z,10.10
2023-05-25T21:18:24.259Z,10.10
2023-05-25T21:20:51.811Z,10.10
2023-05-25T21:23:19.213Z,10.08
2023-05-25T21:25:46.805Z,10.05
2023-05-25T21:28:14.507Z,10.02
2023-05-25T21:30:41.797Z,10.00
2023-05-25T21:33:09.126Z,10.00
2023-05-25T21:35:36.471Z,9.98
2023-05-25T21:38:03.787Z,9.96
2023-05-25T21:40:31.032Z,9.95
2023-05-25T21:42:58.453Z,9.95
2023-05-25T21:45:25.727Z,9.97
2023-05-25T21:47:53.097Z,9.94
2023-05-25T21:50:20.550Z,9.91
2023-05-25T21:52:47.873Z,9.92
2023-05-25T21:55:15.343Z,9.90
2023-05-25T21:57:43.057Z,9.90
2023-05-25T22:00:12.730Z,9.88
2023-05-25T22:02:41.000Z,9.88
2023-05-25T22:05:08.382Z,9.86
2023-05-25T22:07:35.785Z,9.84
2023-05-25T22:10:03.648Z,9.83
2023-05-25T22:12:30.882Z,9.80
2023-05-25T22:14:58.123Z,9.79
2023-05-25T22:17:25.565Z,9.78
2023-05-25T22:20:06.730Z,9.76
2023-05-25T22:22:37.316Z,9.74
2023-05-25T22:25:05.505Z,9.75
2023-05-25T22:27:33.190Z,9.75
2023-05-25T22:30:00.532Z,9.76
2023-05-25T22:32:28.010Z,9.76
2023-05-25T22:34:55.603Z,9.73
2023-05-25T22:37:22.988Z,9.73
2023-05-25T22:39:50.336Z,9.72
2023-05-25T22:42:17.670Z,9.71
2023-05-25T22:44:44.951Z,9.71
2023-05-25T22:47:12.154Z,9.70
2023-05-25T22:49:43.002Z,9.69
2023-05-25T22:52:12.000Z,9.69
2023-05-25T22:54:39.967Z,9.69
2023-05-25T22:57:09.394Z,9.68
2023-05-25T22:59:36.774Z,9.67
2023-05-25T23:02:04.643Z,9.68
2023-05-25T23:04:32.079Z,9.67
2023-05-25T23:06:59.293Z,9.67
2023-05-25T23:09:26.536Z,9.66
2023-05-25T23:11:53.803Z,9.64
2023-05-25T23:14:21.040Z,9.64
2023-05-25T23:16:48.697Z,9.64
2023-05-25T23:19:16.793Z,9.64
2023-05-25T23:21:44.319Z,9.66
2023-05-25T23:24:11.753Z,9.66
2023-05-25T23:26:39.046Z,9.66
2023-05-25T23:29:06.308Z,9.66
2023-05-25T23:31:33.645Z,9.67
2023-05-25T23:34:01.224Z,9.67
2023-05-25T23:36:28.664Z,9.68
2023-05-25T23:38:56.002Z,9.67
2023-05-25T23:41:23.337Z,9.66
2023-05-25T23:43:50.757Z,9.66
2023-05-25T23:46:18.238Z,9.65
2023-05-25T23:48:45.800Z,9.63
2023-05-25T23:51:13.121Z,9.62
2023-05-25T23:53:40.321Z,9.62
2023-05-25T23:56:08.004Z,9.60
2023-05-25T23:58:35.701Z,9.59
